Time,TemperatureF,DewpointF,PressureIn,WindDirection,WindDirectionDegrees,WindSpeedMPH,WindSpeedGustMPH,Humidity,HourlyPrecipIn,Conditions,Clouds,dailyrainin,SolarRadiationWatts/m^2,SoftwareType,DateUTC
2013-04-23 00:00:00,52.0,30.0,-100.00,ESE,112,3.0,-999.0,43,-99.99,,,-99.99,0.000000,,2013-04-23 04:00:00,
2013-04-23 00:44:00,52.0,30.0,-100.00,ESE,112,3.0,-999.0,43,-99.99,,,-99.99,0.000000,,2013-04-23 04:44:00,
2013-04-23 00:53:00,52.0,30.0,-100.00,ESE,112,3.0,-999.0,43,-99.99,,,-99.99,0.000000,,2013-04-23 04:53:00,
2013-04-23 01:00:00,50.0,33.0,-100.00,ESE,112,5.0,-999.0,51,-99.99,,,-99.99,0.000000,,2013-04-23 05:00:00,
2013-04-23 01:43:00,50.0,33.0,-100.00,ESE,112,5.0,-999.0,51,-99.99,,,-99.99,0.000000,,2013-04-23 05:43:00,
2013-04-23 01:52:00,50.0,33.0,-100.00,ESE,112,5.0,-999.0,51,-99.99,,,-99.99,0.000000,,2013-04-23 05:52:00,
2013-04-23 02:00:00,48.0,33.0,-100.00,ESE,112,6.0,-999.0,56,-99.99,,,-99.99,0.000000,,2013-04-23 06:00:00,
2013-04-23 02:42:00,48.0,33.0,-100.00,ESE,112,6.0,-999.0,56,-99.99,,,-99.99,0.000000,,2013-04-23 06:42:00,
2013-04-23 02:52:00,48.0,33.0,-100.00,ESE,112,6.0,-999.0,56,-99.99,,,-99.99,0.000000,,2013-04-23 06:52:00,
2013-04-23 03:00:00,46.0,33.0,-100.00,ESE,112,6.0,-999.0,62,-99.99,,,-99.99,0.000000,,2013-04-23 07:00:00,
2013-04-23 03:42:00,46.0,33.0,-100.00,ESE,112,6.0,-999.0,62,-99.99,,,-99.99,0.000000,,2013-04-23 07:42:00,
2013-04-23 03:52:00,46.0,33.0,-100.00,ESE,112,6.0,-999.0,62,-99.99,,,-99.99,0.000000,,2013-04-23 07:52:00,
2013-04-23 04:00:00,45.0,34.0,-100.00,SE,135,8.0,-999.0,64,-99.99,,,-99.99,0.000000,,2013-04-23 08:00:00,
2013-04-23 04:42:00,45.0,34.0,-100.00,SE,135,8.0,-999.0,64,-99.99,,,-99.99,0.000000,,2013-04-23 08:42:00,
2013-04-23 04:52:00,45.0,34.0,-100.00,SE,135,8.0,-999.0,64,-99.99,,,-99.99,0.000000,,2013-04-23 08:52:00,
2013-04-23 05:00:00,46.0,34.0,-100.00,SE,135,8.0,-999.0,64,-99.99,,,-99.99,0.000000,,2013-04-23 09:00:00,
2013-04-23 05:43:00,46.0,34.0,-100.00,SE,135,8.0,-999.0,64,-99.99,,,-99.99,0.000000,,2013-04-23 09:43:00,
2013-04-23 05:53:00,46.0,34.0,-100.00,SE,135,8.0,-999.0,64,-99.99,,,-99.99,0.000000,,2013-04-23 09:53:00,
2013-04-23 06:00:00,46.0,35.0,-100.00,SE,135,8.0,-999.0,63,-99.99,,,-99.99,0.000000,,2013-04-23 10:00:00,
2013-04-23 06:43:00,46.0,35.0,-100.00,SE,135,8.0,-999.0,63,-99.99,,,-99.99,0.000000,,2013-04-23 10:43:00,
2013-04-23 06:53:00,46.0,35.0,-100.00,SE,135,8.0,-999.0,63,-99.99,,,-99.99,0.000000,,2013-04-23 10:53:00,
2013-04-23 07:00:00,48.0,36.0,-100.00,SSE,157,8.0,-999.0,62,-99.99,,,-99.99,1.160000,,2013-04-23 11:00:00,
2013-04-23 07:43:00,48.0,36.0,-100.00,SSE,157,8.0,-999.0,62,-99.99,,,-99.99,1.160000,,2013-04-23 11:43:00,
2013-04-23 07:53:00,48.0,36.0,-100.00,SSE,157,8.0,-999.0,62,-99.99,,,-99.99,1.160000,,2013-04-23 11:53:00,
2013-04-23 09:00:00,52.0,38.0,-100.00,South,180,8.0,-999.0,59,-99.99,,,-99.99,83.519997,,2013-04-23 13:00:00,
2013-04-23 09:42:00,52.0,38.0,-100.00,South,180,8.0,-999.0,59,-99.99,,,-99.99,83.519997,,2013-04-23 13:42:00,
2013-04-23 09:52:00,52.0,38.0,-100.00,South,180,8.0,-999.0,59,-99.99,,,-99.99,83.519997,,2013-04-23 13:52:00,
2013-04-23 10:00:00,53.0,41.0,-100.00,SSE,157,10.0,-999.0,64,-99.99,,,-99.99,103.239998,,2013-04-23 14:00:00,
2013-04-23 10:42:00,53.0,41.0,-100.00,SSE,157,10.0,-999.0,64,-99.99,,,-99.99,103.239998,,2013-04-23 14:42:00,
2013-04-23 10:52:00,53.0,41.0,-100.00,SSE,157,10.0,-999.0,64,-99.99,,,-99.99,103.239998,,2013-04-23 14:52:00,
2013-04-23 11:00:00,56.0,42.0,-100.00,South,180,10.0,-999.0,59,-99.99,,,-99.99,241.279999,,2013-04-23 15:00:00,
2013-04-23 11:43:00,56.0,42.0,-100.00,South,180,10.0,-999.0,59,-99.99,,,-99.99,241.279999,,2013-04-23 15:43:00,
2013-04-23 11:53:00,56.0,42.0,-100.00,South,180,10.0,-999.0,59,-99.99,,,-99.99,241.279999,,2013-04-23 15:53:00,
2013-04-23 12:00:00,59.0,42.0,-100.00,South,180,11.0,-999.0,53,-99.99,,,-99.99,309.720001,,2013-04-23 16:00:00,
2013-04-23 12:43:00,59.0,42.0,-100.00,South,180,11.0,-999.0,53,-99.99,,,-99.99,309.720001,,2013-04-23 16:43:00,
2013-04-23 12:53:00,59.0,42.0,-100.00,South,180,11.0,-999.0,53,-99.99,,,-99.99,309.720001,,2013-04-23 16:53:00,
2013-04-23 13:00:00,62.0,43.0,-100.00,South,180,10.0,-999.0,48,-99.99,,,-99.99,344.519989,,2013-04-23 17:00:00,
2013-04-23 13:43:00,62.0,43.0,-100.00,South,180,10.0,-999.0,48,-99.99,,,-99.99,344.519989,,2013-04-23 17:43:00,
2013-04-23 13:53:00,62.0,43.0,-100.00,South,180,10.0,-999.0,48,-99.99,,,-99.99,344.519989,,2013-04-23 17:53:00,
2013-04-23 14:00:00,64.0,44.0,-100.00,SSW,202,11.0,-999.0,47,-99.99,,,-99.99,353.799988,,2013-04-23 18:00:00,
2013-04-23 14:42:00,64.0,44.0,-100.00,SSW,202,11.0,-999.0,47,-99.99,,,-99.99,353.799988,,2013-04-23 18:42:00,
2013-04-23 14:52:00,64.0,44.0,-100.00,SSW,202,11.0,-999.0,47,-99.99,,,-99.99,353.799988,,2013-04-23 18:52:00,
2013-04-23 15:00:00,64.0,44.0,-100.00,SSW,202,9.0,-999.0,49,-99.99,,,-99.99,124.120003,,2013-04-23 19:00:00,
2013-04-23 15:42:00,64.0,44.0,-100.00,SSW,202,9.0,-999.0,49,-99.99,,,-99.99,124.120003,,2013-04-23 19:42:00,
2013-04-23 15:52:00,64.0,44.0,-100.00,SSW,202,9.0,-999.0,49,-99.99,,,-99.99,124.120003,,2013-04-23 19:52:00,
2013-04-23 16:00:00,58.0,50.0,-100.00,WSW,247,8.0,-999.0,73,0.10,,,-99.99,49.880001,,2013-04-23 20:00:00,
2013-04-23 16:42:00,58.0,50.0,-100.00,WSW,247,8.0,-999.0,73,0.10,,,-99.99,49.880001,,2013-04-23 20:42:00,
2013-04-23 16:52:00,58.0,50.0,-100.00,WSW,247,8.0,-999.0,73,0.10,,,-99.99,49.880001,,2013-04-23 20:52:00,
2013-04-23 17:00:00,55.0,52.0,-100.00,SW,225,6.0,-999.0,88,0.08,,,-99.99,56.840000,,2013-04-23 21:00:00,
2013-04-23 17:43:00,55.0,52.0,-100.00,SW,225,6.0,-999.0,88,0.08,,,-99.99,56.840000,,2013-04-23 21:43:00,
2013-04-23 17:53:00,55.0,52.0,-100.00,SW,225,6.0,-999.0,88,0.08,,,-99.99,56.840000,,2013-04-23 21:53:00,
2013-04-23 18:00:00,54.0,51.0,-100.00,SW,225,6.0,-999.0,89,0.03,,,-99.99,68.440002,,2013-04-23 22:00:00,
2013-04-23 18:42:00,54.0,51.0,-100.00,SW,225,6.0,-999.0,89,0.03,,,-99.99,68.440002,,2013-04-23 22:42:00,
2013-04-23 18:53:00,54.0,51.0,-100.00,SW,225,6.0,-999.0,89,0.03,,,-99.99,68.440002,,2013-04-23 22:53:00,
2013-04-23 19:00:00,53.0,50.0,-100.00,West,270,7.0,-999.0,89,0.04,,,-99.99,16.240000,,2013-04-23 23:00:00,
2013-04-23 19:42:00,53.0,50.0,-100.00,West,270,7.0,-999.0,89,0.04,,,-99.99,16.240000,,2013-04-23 23:42:00,
2013-04-23 19:52:00,53.0,50.0,-100.00,West,270,7.0,-999.0,89,0.04,,,-99.99,16.240000,,2013-04-23 23:52:00,
2013-04-23 21:00:00,39.0,37.0,-100.00,NNW,337,7.0,-999.0,92,0.05,,,-99.99,0.000000,,2013-04-24 01:00:00,
2013-04-23 21:43:00,39.0,37.0,-100.00,NNW,337,7.0,-999.0,92,0.05,,,-99.99,0.000000,,2013-04-24 01:43:00,
2013-04-23 21:52:00,39.0,37.0,-100.00,NNW,337,7.0,-999.0,92,0.05,,,-99.99,0.000000,,2013-04-24 01:52:00,
2013-04-23 22:00:00,39.0,37.0,-100.00,NNW,337,7.0,-999.0,92,0.11,,,-99.99,0.000000,,2013-04-24 02:00:00,
2013-04-23 22:51:00,39.0,37.0,-100.00,NNW,337,7.0,-999.0,92,0.11,,,-99.99,0.000000,,2013-04-24 02:51:00,
2013-04-23 23:00:00,39.0,37.0,-100.00,NNW,337,6.0,-999.0,92,0.06,,,-99.99,0.000000,,2013-04-24 03:00:00,
2013-04-23 23:54:00,39.0,37.0,-100.00,NNW,337,6.0,-999.0,92,0.06,,,-99.99,0.000000,,2013-04-24 03:54:00,